Nearby METAR Reports

 

CWMM - Pitt Meadows, BC, Canada
Distance from station: ESE 9km
Updated: 02/25/2018 5:00am

 Wind from S
Wind: S 15 km/h, Gust: 28 km/h
Temperature: 5°C
Wind Chill: 2°C
Dew Point: 2°C
Humidity: 81%
2018/02/25 13:00 CWMM 251300Z AUTO 19008G15KT 05/02 RMK AO1 SOG 11 6036 PK WND 16018/1235 SLP065 T00480022
CWWK - White Rock, BC, Canada
Distance from station: S 27km
Updated: 02/25/2018 5:00am

 Wind from S
Wind: S 13 km/h
Temperature: 6°C
Wind Chill: 3°C
Dew Point: 4°C
Humidity: 87%
2018/02/25 13:00 CWWK 251300Z AUTO 17007KT 06/04 RMK AO1 PK WND 17018/1240 SLP074 T00570036 56033
 
CWWA - West Vancouver, BC, Canada
Distance from station: WNW 30km
Updated: 02/25/2018 5:00am

 Wind from NNE
Wind: NNE 2 km/h
Temperature: 2°C
Dew Point: 1°C
Humidity: 93%
2018/02/25 13:00 CWWA 251300Z AUTO 02001KT 02/01 RMK AO1 SLP060 T00240006 56036
CYVR - Vancouver Airport , Canada
Distance from station: WSW 30km
Updated: 02/25/2018 5:00am
Overcast
Overcast
 Wind from S
Wind: S 22 km/h
Temperature: 5°C
Wind Chill: 1°C
Dew Point: 3°C
Humidity: 87%
Barometer: 1006.1 hPa
Clouds: Overcast
Visibility: 32 km
Cloud details: Few Clouds 1402 m
Mostly cloudy 2103 m
Mostly cloudy 2774 m
Overcast 4877 m
2018/02/25 13:00 CYVR 251300Z 18012KT 20SM FEW046 BKN069 BKN091 OVC160 05/03 A2971 RMK SC1AC5AC1AS1 SLP062
 
CYXX - Abbotsford, BC, Canada
Distance from station: SE 38km
Updated: 02/25/2018 5:00am
Rain showers, Overcast
Rain showers, Overcast
 Wind from S
Wind: S 30 km/h, Gust: 39 km/h
Temperature: 3°C
Wind Chill: -3°C
Dew Point: 2°C
Humidity: 93%
Barometer: 1007.1 hPa
Summary: Rain Showers
Clouds: Overcast
Visibility: 16 km
Cloud details: Mostly cloudy 701 m
Mostly cloudy 1006 m
Mostly cloudy 1524 m
Overcast 2591 m
2018/02/25 13:00 CYXX 251300Z 17016G21KT 10SM SHRA BKN023 BKN033 BKN050 OVC085 03/02 A2974 RMK SC5SC1SC1AS1 CVCTV CLD EMBD SLP073
CWVF - Sand Heads Lighthouse, BC, Canada
Distance from station: WSW 41km
Updated: 02/25/2018 5:15am

 Wind from W
Wind: W 33 km/h
Temperature: 7°C
Wind Chill: 3°C
2018/02/25 13:15 CWVF 251315Z AUTO 26018KT 07/ RMK AO1 PK WND 26023/1306 T0074
 
KBLI - Bellingham, WA, USA
Distance from station: SSE 54km
Updated: 02/25/2018 4:53am
Light rain, Overcast
Light rain, Overcast
 Wind from SSE
Wind: SSE 24 km/h, Gust: 46 km/h
Temperature: 4°C
Wind Chill: -1°C
Dew Point: 3°C
Humidity: 93%
Barometer: 1007.8 hPa
Summary: Light rain
Clouds: Overcast
Visibility: 16 km
Cloud details: Overcast 457 m
2018/02/25 12:53 KBLI 251253Z AUTO 16013G25KT 10SM -RA OVC015 04/03 A2976 RMK AO2 PK WND 14031/1207 SLP086 P0002 T00440033
CWEZ - Saturna Island, BC, Canada
Distance from station: SSW 56km
Updated: 02/25/2018 5:00am

 Wind from SW
Wind: SW 15 km/h, Gust: 31 km/h
Temperature: 6°C
Wind Chill: 3°C
Dew Point: 4°C
Humidity: 87%
2018/02/25 13:00 CWEZ 251300Z AUTO 23008G17KT 06/04 RMK AO1 PK WND 19033/1203 SLP071 T00550036 55020
 
KORS - Orcas Island Airport, WA, USA
Distance from station: S 63km
Updated: 02/25/2018 5:15am
Overcast
Overcast
 Wind from S
Wind: S 17 km/h, Gust: 28 km/h
Temperature: 6°C
Wind Chill: 3°C
Dew Point: 3°C
Humidity: 81%
Barometer: 1007.5 hPa
Clouds: Overcast
Visibility: 16 km
Cloud details: Few Clouds 762 m
Mostly cloudy 1372 m
Overcast 2286 m
2018/02/25 13:15 KORS 251315Z AUTO 19009G15KT 160V220 10SM FEW025 BKN045 OVC075 06/03 A2975 RMK AO2
CWSK - Squamish, BC, Canada
Distance from station: NNW 65km
Updated: 02/25/2018 5:00am

 Wind from SE
Wind: SE 17 km/h, Gust: 33 km/h
Temperature: 4°C
Wind Chill: 0°C
Dew Point: 3°C
Humidity: 93%
2018/02/25 13:00 CWSK 251300Z AUTO 14009G18KT 04/03 RMK AO1 5PAST HR SOG 16 6037 PK WND 13020/1218 SLP034 P0006 T00360028 50015
 
CWEL - Entrance Island, BC, Canada
Distance from station: W 73km
Updated: 02/25/2018 5:00am

 Wind from W
Wind: W 24 km/h
Temperature: 6°C
Wind Chill: 2°C
Dew Point: 1°C
Humidity: 71%
2018/02/25 13:00 CWEL 251300Z AUTO 27013KT 06/01 RMK AO1 PK WND 29027/1208 SLP059 T00640008 56019
CWZA - Agassiz, BC, Canada
Distance from station: E 74km
Updated: 02/25/2018 5:00am

 Wind from NW
Wind: NW 6 km/h
Temperature: 4°C
Dew Point: 1°C
Humidity: 81%
2018/02/25 13:00 CWZA 251300Z AUTO 31003KT 04/01 RMK AO1 1PAST HR SOG 06 6038 SLP059 P0000 T00420010 50001
 
CYCD - Nanaimo Airport, BC, Canada
Distance from station: WSW 82km
Updated: 02/24/2018 9:00pm
NOT Current
Overcast
Overcast
 Wind from varies
Wind: varies 4 km/h
Temperature: 1°C
Dew Point: 1°C
Humidity: 100%
Barometer: 1015.6 hPa
Clouds: Overcast
Visibility: 32 km
Cloud details: Mostly cloudy 1524 m
Overcast 2438 m
2018/02/25 05:00 CYCD 250500Z VRB02KT 20SM BKN050 OVC080 01/01 A2999 RMK SC5AC3 LAST OBS/NEXT 251400 UTC SLP158
CYYJ - Victoria Airport, BC, Canada
Distance from station: SW 83km
Updated: 02/25/2018 5:00am
Mostly cloudy
Mostly cloudy
 Wind from W
Wind: W 22 km/h, Gust: 35 km/h
Temperature: 6°C
Wind Chill: 2°C
Dew Point: 0°C
Humidity: 66%
Barometer: 1007.8 hPa
Clouds: Mostly cloudy
Visibility: 24 km
Cloud details: Few Clouds 914 m
Mostly cloudy 5486 m
2018/02/25 13:00 CYYJ 251300Z 26012G19KT 15SM FEW030 BKN180 06/00 A2976 RMK SC2AC5 SLP079
 
KFHR - Friday Harbor Airport, WA, USA
Distance from station: SSW 84km
Updated: 02/25/2018 5:01am
Partly cloudy
Partly cloudy
 Wind from SW
Wind: SW 22 km/h, Gust: 44 km/h
Temperature: 5°C
Wind Chill: 1°C
Dew Point: 2°C
Humidity: 81%
Barometer: 1008.8 hPa
Clouds: Partly cloudy
Visibility: 16 km
Cloud details: Few Clouds 488 m
Partly cloudy 1250 m
2018/02/25 13:01 KFHR 251301Z AUTO 22012G24KT 10SM FEW016 SCT041 05/02 A2979 RMK AO2 T00500022
KBVS - Skagit Regional Airport, WA, USA
Distance from station: SSE 92km
Updated: 02/25/2018 5:15am
Mist, Overcast
Mist, Overcast
 Wind from S
Wind: S 19 km/h
Temperature: 5°C
Wind Chill: 1°C
Dew Point: 4°C
Humidity: 93%
Barometer: 1009.5 hPa
Summary: Mist
Clouds: Overcast
Visibility: 8 km
Cloud details: Mostly cloudy 518 m
Overcast 732 m
2018/02/25 13:15 KBVS 251315Z AUTO 19010KT 5SM BR BKN017 OVC024 05/04 A2981 RMK A01
 
CYHE - Hope Airport, BC, Canada
Distance from station: E 94km
Updated: 02/25/2018 5:16am
Light rain, Mist, Overcast
Light rain, Mist, Overcast
 Wind from varies
Wind: varies 11 km/h
Temperature: 2°C
Wind Chill: -1°C
Dew Point: 1°C
Humidity: 93%
Barometer: 1004.4 hPa
Summary: Light rain, Mist
Clouds: Overcast
Visibility: 8 km
Cloud details: Mostly cloudy 549 m
Overcast 853 m
2018/02/25 13:16 CYHE 251316Z AUTO VRB06KT 5SM -RA BR BKN018 OVC028 02/01 A2966 RMK SLP045
CWKH - Malahat, BC, Canada
Distance from station: SW 95km
Updated: 02/25/2018 5:00am

 
Temperature: 2°C
Dew Point: -1°C
Humidity: 81%
2018/02/25 13:00 CWKH 251300Z AUTO 02/M01 RMK AO1 2PAST HR 6018 SLP060 P0001 T00201009 50002
 
CWYJ - Victoria University, BC, Canada
Distance from station: SSW 97km
Updated: 02/25/2018 5:00am

 Wind from WSW
Wind: WSW 17 km/h, Gust: 37 km/h
Temperature: 5°C
Wind Chill: 2°C
Dew Point: 3°C
Humidity: 87%
2018/02/25 13:00 CWYJ 251300Z AUTO 25009G20KT 05/03 RMK AO1 3PAST HR 6028 PK WND 24021/1217 SLP081 P0001 T00490027 50003
CWAE - Whistler, BC, Canada
Distance from station: N 98km
Updated: 02/24/2018 5:00pm
NOT Current
Overcast
Overcast
 Wind from S
Wind: S 7 km/h
Temperature: -1°C
Wind Chill: -4°C
Dew Point: -4°C
Humidity: 80%
Barometer: 1013.2 hPa
Clouds: Overcast
Visibility: 24 km
Cloud details: Few Clouds 549 m
Partly cloudy 1006 m
Mostly cloudy 1250 m
Overcast 2743 m
2018/02/25 01:00 CWAE 250100Z 18004KT 15SM FEW018 SCT033 BKN041 OVC090 M01/M04 A2992 RMK SC2SC2SC2AS2 LAST OBS/NEXT 251500UTC WND ESTD SLP159
 
CYHM - Hamilton Airport, Ontario, Canada
Distance from station: SSW 4266km
Updated: 02/25/2018 5:19am
Light rain, Mist, Overcast
Light rain, Mist, Overcast
 Wind from SSW
Wind: SSW 20 km/h
Temperature: 7°C
Wind Chill: 4°C
Dew Point: 7°C
Humidity: 100%
Barometer: 1001 hPa
Summary: Light rain, Mist
Clouds: Overcast
Visibility: 4 km
Cloud details: Mostly cloudy 122 m
Overcast 305 m
2018/02/25 13:19 CYHM 251319Z 20011KT 2 1/2SM -RA BR BKN004 OVC010 07/07 A2956 RMK SF6SC2 PCPN VRY LGT SLP018